RYR6BQ GMMX-GMTT
Flight info
| Callsign | RYR6BQ |
|---|---|
| Flight time | 1h 0m |
| Altitude | 32000 |
| Route | MABAP UR722 SAK UG5 VAGNO |
| Aircraft | B738/M-SDE2E3FGHIRWXY/LB1 |
Departure
| Time | 2026-04-25 15:16 |
|---|---|
| Airport | Marrakesh Menara Airport (GMMX) |
Arrival
| Time | 2026-04-25 16:16 |
|---|---|
| Airport | Tangier Ibn Battuta Airport (GMTT) |
| Time | Latitude | Longitude | Altitude | Speed | Heading |
|---|---|---|---|---|---|
| 2026-04-25 14:44 | 31.60185 | -8.02315 | 1529 ft | 0 kts | 274° |
| 2026-04-25 15:04 | 31.60185 | -8.02306 | 1539 ft | 4 kts | 274° |
| 2026-04-25 15:04 | 31.60183 | -8.02274 | 1534 ft | 4 kts | 273° |
| 2026-04-25 15:04 | 31.60181 | -8.02245 | 1532 ft | 4 kts | 269° |
| 2026-04-25 15:04 | 31.60182 | -8.02234 | 1531 ft | 0 kts | 248° |
| 2026-04-25 15:08 | 31.60192 | -8.02233 | 1532 ft | 3 kts | 49° |
| 2026-04-25 15:08 | 31.60217 | -8.02210 | 1531 ft | 8 kts | 12° |
| 2026-04-25 15:08 | 31.60301 | -8.02195 | 1532 ft | 16 kts | 7° |
| 2026-04-25 15:08 | 31.60390 | -8.02226 | 1538 ft | 15 kts | 290° |
| 2026-04-25 15:09 | 31.60402 | -8.02342 | 1538 ft | 14 kts | 276° |
| 2026-04-25 15:09 | 31.60409 | -8.02456 | 1539 ft | 15 kts | 271° |
| 2026-04-25 15:09 | 31.60442 | -8.02729 | 1531 ft | 19 kts | 276° |
| 2026-04-25 15:10 | 31.60452 | -8.02891 | 1537 ft | 20 kts | 276° |
| 2026-04-25 15:10 | 31.60469 | -8.03062 | 1536 ft | 22 kts | 277° |
| 2026-04-25 15:10 | 31.60501 | -8.03457 | 1531 ft | 26 kts | 276° |
| 2026-04-25 15:11 | 31.60520 | -8.03673 | 1538 ft | 28 kts | 276° |
| 2026-04-25 15:11 | 31.60541 | -8.03901 | 1538 ft | 29 kts | 276° |
| 2026-04-25 15:11 | 31.60561 | -8.04135 | 1539 ft | 28 kts | 276° |
| 2026-04-25 15:12 | 31.60599 | -8.04566 | 1539 ft | 25 kts | 275° |
| 2026-04-25 15:12 | 31.60616 | -8.04762 | 1531 ft | 23 kts | 276° |
| 2026-04-25 15:12 | 31.60632 | -8.04946 | 1539 ft | 22 kts | 276° |
| 2026-04-25 15:12 | 31.60638 | -8.05005 | 1537 ft | 22 kts | 276° |
| 2026-04-25 15:13 | 31.60671 | -8.05239 | 1537 ft | 11 kts | 317° |
| 2026-04-25 15:13 | 31.60732 | -8.05247 | 1539 ft | 0 kts | 6° |
| 2026-04-25 15:14 | 31.60738 | -8.05246 | 1539 ft | 4 kts | 6° |
| 2026-04-25 15:14 | 31.60794 | -8.05227 | 1537 ft | 13 kts | 34° |
| 2026-04-25 15:15 | 31.60818 | -8.05107 | 1538 ft | 18 kts | 101° |
| 2026-04-25 15:15 | 31.60800 | -8.04888 | 1532 ft | 52 kts | 95° |
| 2026-04-25 15:15 | 31.60741 | -8.04193 | 1532 ft | 117 kts | 95° |
| 2026-04-25 15:15 | 31.60662 | -8.03042 | 1583 ft | 165 kts | 92° |
| 2026-04-25 15:16 | 31.60510 | -8.01648 | 2200 ft | 173 kts | 102° |
| 2026-04-25 15:16 | 31.60102 | -8.00329 | 3005 ft | 175 kts | 112° |
| 2026-04-25 15:16 | 31.59019 | -7.97444 | 3925 ft | 214 kts | 111° |
| 2026-04-25 15:17 | 31.57738 | -7.93952 | 4716 ft | 249 kts | 112° |
| 2026-04-25 15:17 | 31.57020 | -7.92078 | 5544 ft | 251 kts | 112° |
| 2026-04-25 15:17 | 31.56406 | -7.90176 | 6147 ft | 249 kts | 99° |
| 2026-04-25 15:18 | 31.56551 | -7.88233 | 6243 ft | 235 kts | 64° |
| 2026-04-25 15:18 | 31.58733 | -7.85284 | 6426 ft | 252 kts | 30° |
| 2026-04-25 15:18 | 31.60391 | -7.84680 | 6410 ft | 251 kts | 2° |
| 2026-04-25 15:19 | 31.62081 | -7.85068 | 6421 ft | 250 kts | 337° |
| 2026-04-25 15:19 | 31.62585 | -7.85365 | 6423 ft | 251 kts | 331° |
| 2026-04-25 15:19 | 31.64629 | -7.87844 | 6445 ft | 257 kts | 308° |
| 2026-04-25 15:19 | 31.65701 | -7.89542 | 6471 ft | 260 kts | 308° |
| 2026-04-25 15:20 | 31.66776 | -7.91264 | 6979 ft | 263 kts | 308° |
| 2026-04-25 15:20 | 31.67837 | -7.92967 | 7840 ft | 262 kts | 306° |
| 2026-04-25 15:20 | 31.68915 | -7.94699 | 8644 ft | 264 kts | 305° |
| 2026-04-25 15:20 | 31.70013 | -7.96466 | 9366 ft | 270 kts | 304° |
| 2026-04-25 15:21 | 31.71126 | -7.98256 | 10144 ft | 272 kts | 304° |
| 2026-04-25 15:21 | 31.72250 | -8.00064 | 10832 ft | 277 kts | 304° |
| 2026-04-25 15:21 | 31.73395 | -8.01907 | 11522 ft | 281 kts | 304° |
| 2026-04-25 15:21 | 31.74556 | -8.03775 | 12221 ft | 285 kts | 304° |
| 2026-04-25 15:22 | 31.75736 | -8.05675 | 12939 ft | 289 kts | 305° |
| 2026-04-25 15:22 | 31.76921 | -8.07581 | 13711 ft | 291 kts | 304° |
| 2026-04-25 15:22 | 31.78122 | -8.09515 | 14365 ft | 293 kts | 305° |
| 2026-04-25 15:22 | 31.79325 | -8.11455 | 15049 ft | 294 kts | 305° |
| 2026-04-25 15:23 | 31.80533 | -8.13400 | 15750 ft | 295 kts | 306° |
| 2026-04-25 15:23 | 31.82028 | -8.15034 | 16452 ft | 295 kts | 332° |
| 2026-04-25 15:23 | 31.84015 | -8.15831 | 16767 ft | 313 kts | 350° |
| 2026-04-25 15:23 | 31.86240 | -8.16178 | 16943 ft | 332 kts | 353° |
| 2026-04-25 15:24 | 31.88608 | -8.16472 | 17082 ft | 352 kts | 353° |
| 2026-04-25 15:24 | 31.91109 | -8.16777 | 17219 ft | 370 kts | 353° |
| 2026-04-25 15:24 | 31.93717 | -8.17108 | 17511 ft | 382 kts | 352° |
| 2026-04-25 15:24 | 31.94574 | -8.17220 | 17702 ft | 382 kts | 352° |
| 2026-04-25 15:25 | 31.98134 | -8.17700 | 18399 ft | 389 kts | 352° |
| 2026-04-25 15:25 | 32.01761 | -8.18204 | 18990 ft | 394 kts | 352° |
| 2026-04-25 15:25 | 32.04493 | -8.18588 | 19508 ft | 397 kts | 352° |
| 2026-04-25 15:25 | 32.07263 | -8.18977 | 19839 ft | 405 kts | 352° |
| 2026-04-25 15:26 | 32.10053 | -8.19371 | 20455 ft | 403 kts | 351° |
| 2026-04-25 15:26 | 32.12856 | -8.19685 | 20964 ft | 407 kts | 358° |
| 2026-04-25 15:26 | 32.15696 | -8.19389 | 21427 ft | 412 kts | 7° |
| 2026-04-25 15:26 | 32.18545 | -8.18897 | 21863 ft | 416 kts | 7° |
| 2026-04-25 15:27 | 32.21421 | -8.18370 | 22277 ft | 420 kts | 7° |
| 2026-04-25 15:27 | 32.24322 | -8.17843 | 22721 ft | 423 kts | 7° |
| 2026-04-25 15:27 | 32.30161 | -8.16833 | 23568 ft | 430 kts | 6° |
| 2026-04-25 15:28 | 32.33130 | -8.16335 | 23921 ft | 432 kts | 6° |
| 2026-04-25 15:28 | 32.36114 | -8.15844 | 24335 ft | 434 kts | 5° |
| 2026-04-25 15:28 | 32.39109 | -8.15358 | 24827 ft | 433 kts | 7° |
| 2026-04-25 15:28 | 32.42102 | -8.14871 | 25191 ft | 435 kts | 7° |
| 2026-04-25 15:29 | 32.45113 | -8.14380 | 25518 ft | 439 kts | 6° |
| 2026-04-25 15:29 | 32.48146 | -8.13887 | 25859 ft | 441 kts | 5° |
| 2026-04-25 15:29 | 32.51202 | -8.13391 | 26218 ft | 443 kts | 5° |
| 2026-04-25 15:29 | 32.54264 | -8.12890 | 26560 ft | 445 kts | 5° |
| 2026-04-25 15:30 | 32.57341 | -8.12386 | 26890 ft | 448 kts | 6° |
| 2026-04-25 15:30 | 32.60440 | -8.11882 | 27209 ft | 450 kts | 6° |
| 2026-04-25 15:30 | 32.63551 | -8.11374 | 27536 ft | 452 kts | 5° |
| 2026-04-25 15:30 | 32.66672 | -8.10860 | 27860 ft | 454 kts | 6° |
| 2026-04-25 15:31 | 32.69785 | -8.10349 | 28164 ft | 456 kts | 4° |
| 2026-04-25 15:31 | 32.72964 | -8.09825 | 28450 ft | 459 kts | 6° |
| 2026-04-25 15:31 | 32.76132 | -8.09309 | 28738 ft | 461 kts | 5° |
| 2026-04-25 15:31 | 32.79313 | -8.08792 | 29031 ft | 463 kts | 5° |
| 2026-04-25 15:32 | 32.82512 | -8.08273 | 29304 ft | 465 kts | 7° |
| 2026-04-25 15:32 | 32.85685 | -8.07758 | 29576 ft | 467 kts | 4° |
| 2026-04-25 15:32 | 32.88910 | -8.07234 | 29847 ft | 469 kts | 6° |
| 2026-04-25 15:33 | 32.95241 | -8.05337 | 30579 ft | 470 kts | 20° |
| 2026-04-25 15:33 | 32.98168 | -8.03587 | 30897 ft | 472 kts | 27° |
| 2026-04-25 15:33 | 33.01035 | -8.01679 | 31223 ft | 471 kts | 27° |
| 2026-04-25 15:33 | 33.03888 | -7.99745 | 31493 ft | 472 kts | 27° |
| 2026-04-25 15:34 | 33.06735 | -7.97812 | 31834 ft | 470 kts | 27° |
| 2026-04-25 15:34 | 33.09580 | -7.95893 | 32157 ft | 469 kts | 26° |
| 2026-04-25 15:34 | 33.12421 | -7.93996 | 32487 ft | 468 kts | 27° |
| 2026-04-25 15:34 | 33.13379 | -7.93360 | 32596 ft | 468 kts | 27° |
| 2026-04-25 15:35 | 33.20947 | -7.88367 | 33430 ft | 465 kts | 26° |
| 2026-04-25 15:35 | 33.23780 | -7.86497 | 33740 ft | 464 kts | 26° |
| 2026-04-25 15:35 | 33.26602 | -7.84632 | 34041 ft | 463 kts | 26° |
| 2026-04-25 15:36 | 33.32243 | -7.80896 | 34492 ft | 463 kts | 26° |
| 2026-04-25 15:36 | 33.35064 | -7.79027 | 34703 ft | 463 kts | 26° |
| 2026-04-25 15:36 | 33.37884 | -7.77156 | 34947 ft | 463 kts | 26° |
| 2026-04-25 15:37 | 33.40700 | -7.75285 | 35176 ft | 462 kts | 26° |
| 2026-04-25 15:37 | 33.43511 | -7.73417 | 35395 ft | 462 kts | 26° |
| 2026-04-25 15:37 | 33.46319 | -7.71549 | 35649 ft | 461 kts | 26° |
| 2026-04-25 15:37 | 33.49119 | -7.69686 | 35948 ft | 459 kts | 26° |
| 2026-04-25 15:38 | 33.51909 | -7.67829 | 36164 ft | 459 kts | 26° |
| 2026-04-25 15:38 | 33.54720 | -7.66015 | 36309 ft | 460 kts | 24° |
| 2026-04-25 15:38 | 33.56606 | -7.64860 | 36421 ft | 460 kts | 24° |
| 2026-04-25 15:38 | 33.59471 | -7.63147 | 36636 ft | 459 kts | 23° |
| 2026-04-25 15:39 | 33.62332 | -7.61450 | 36856 ft | 458 kts | 23° |
| 2026-04-25 15:39 | 33.65190 | -7.59750 | 36967 ft | 460 kts | 23° |
| 2026-04-25 15:39 | 33.70939 | -7.56294 | 36963 ft | 461 kts | 23° |
| 2026-04-25 15:40 | 33.75680 | -7.53415 | 36975 ft | 459 kts | 23° |
| 2026-04-25 15:40 | 33.82308 | -7.49377 | 36967 ft | 455 kts | 23° |
| 2026-04-25 15:41 | 33.87945 | -7.45939 | 36972 ft | 453 kts | 23° |
| 2026-04-25 15:41 | 33.93557 | -7.42514 | 36977 ft | 452 kts | 23° |
| 2026-04-25 15:42 | 33.99157 | -7.39090 | 36976 ft | 452 kts | 23° |
| 2026-04-25 15:42 | 34.01985 | -7.37361 | 36508 ft | 459 kts | 23° |
| 2026-04-25 15:42 | 34.04795 | -7.35639 | 36001 ft | 457 kts | 23° |
| 2026-04-25 15:43 | 34.07631 | -7.33899 | 35385 ft | 457 kts | 23° |
| 2026-04-25 15:43 | 34.10504 | -7.32136 | 34762 ft | 458 kts | 23° |
| 2026-04-25 15:43 | 34.13306 | -7.30417 | 34133 ft | 458 kts | 23° |
| 2026-04-25 15:43 | 34.16146 | -7.28673 | 33582 ft | 456 kts | 23° |
| 2026-04-25 15:44 | 34.18957 | -7.26944 | 33089 ft | 452 kts | 23° |
| 2026-04-25 15:44 | 34.21747 | -7.25227 | 32625 ft | 448 kts | 23° |
| 2026-04-25 15:44 | 34.24507 | -7.23527 | 32156 ft | 443 kts | 23° |
| 2026-04-25 15:44 | 34.27252 | -7.21835 | 31734 ft | 439 kts | 23° |
| 2026-04-25 15:45 | 34.29959 | -7.20165 | 31285 ft | 435 kts | 22° |
| 2026-04-25 15:45 | 34.32641 | -7.18511 | 30837 ft | 431 kts | 22° |
| 2026-04-25 15:45 | 34.35299 | -7.16870 | 30396 ft | 427 kts | 23° |
| 2026-04-25 15:45 | 34.37084 | -7.15767 | 30101 ft | 425 kts | 23° |
| 2026-04-25 15:46 | 34.40546 | -7.13627 | 29434 ft | 419 kts | 23° |
| 2026-04-25 15:46 | 34.43128 | -7.12029 | 28972 ft | 415 kts | 23° |
| 2026-04-25 15:46 | 34.45683 | -7.10447 | 28504 ft | 410 kts | 23° |
| 2026-04-25 15:46 | 34.48211 | -7.08881 | 28063 ft | 406 kts | 23° |
| 2026-04-25 15:47 | 34.50717 | -7.07326 | 27608 ft | 402 kts | 23° |
| 2026-04-25 15:47 | 34.53203 | -7.05785 | 27183 ft | 398 kts | 23° |
| 2026-04-25 15:47 | 34.55659 | -7.04260 | 26740 ft | 395 kts | 23° |
| 2026-04-25 15:47 | 34.58070 | -7.02763 | 26309 ft | 392 kts | 23° |
| 2026-04-25 15:48 | 34.60485 | -7.01262 | 25878 ft | 389 kts | 23° |
| 2026-04-25 15:48 | 34.62891 | -6.99781 | 25450 ft | 386 kts | 23° |
| 2026-04-25 15:48 | 34.65279 | -6.98320 | 25015 ft | 384 kts | 23° |
| 2026-04-25 15:48 | 34.67661 | -6.96865 | 24574 ft | 382 kts | 23° |
| 2026-04-25 15:49 | 34.70028 | -6.95419 | 24158 ft | 380 kts | 23° |
| 2026-04-25 15:49 | 34.72386 | -6.93976 | 23710 ft | 379 kts | 23° |
| 2026-04-25 15:49 | 34.74737 | -6.92536 | 23226 ft | 378 kts | 24° |
| 2026-04-25 15:49 | 34.77071 | -6.91104 | 22768 ft | 375 kts | 24° |
| 2026-04-25 15:50 | 34.79392 | -6.89679 | 22332 ft | 372 kts | 24° |
| 2026-04-25 15:50 | 34.81691 | -6.88265 | 21914 ft | 369 kts | 24° |
| 2026-04-25 15:50 | 34.83969 | -6.86864 | 21501 ft | 366 kts | 25° |
| 2026-04-25 15:50 | 34.86230 | -6.85472 | 21102 ft | 363 kts | 25° |
| 2026-04-25 15:51 | 34.88471 | -6.84091 | 20684 ft | 360 kts | 25° |
| 2026-04-25 15:51 | 34.89946 | -6.83183 | 20416 ft | 358 kts | 25° |
| 2026-04-25 15:51 | 34.92909 | -6.81356 | 19868 ft | 355 kts | 25° |
| 2026-04-25 15:51 | 34.95103 | -6.80002 | 19471 ft | 353 kts | 25° |
| 2026-04-25 15:52 | 34.97286 | -6.78655 | 19082 ft | 351 kts | 25° |
| 2026-04-25 15:52 | 34.99456 | -6.77314 | 18684 ft | 349 kts | 25° |
| 2026-04-25 15:52 | 35.01618 | -6.75978 | 18283 ft | 347 kts | 25° |
| 2026-04-25 15:52 | 35.03765 | -6.74650 | 17825 ft | 345 kts | 25° |
| 2026-04-25 15:53 | 35.05896 | -6.73331 | 17408 ft | 342 kts | 25° |
| 2026-04-25 15:53 | 35.08012 | -6.72021 | 17013 ft | 340 kts | 25° |
| 2026-04-25 15:53 | 35.10112 | -6.70719 | 16616 ft | 337 kts | 25° |
| 2026-04-25 15:53 | 35.12197 | -6.69426 | 16228 ft | 334 kts | 25° |
| 2026-04-25 15:54 | 35.14262 | -6.68145 | 15827 ft | 332 kts | 26° |
| 2026-04-25 15:54 | 35.16285 | -6.66890 | 15456 ft | 329 kts | 26° |
| 2026-04-25 15:54 | 35.18325 | -6.65623 | 15083 ft | 327 kts | 25° |
| 2026-04-25 15:54 | 35.20351 | -6.64364 | 14704 ft | 326 kts | 26° |
| 2026-04-25 15:55 | 35.22368 | -6.63110 | 14336 ft | 324 kts | 25° |
| 2026-04-25 15:55 | 35.24372 | -6.61863 | 13965 ft | 323 kts | 25° |
| 2026-04-25 15:55 | 35.26370 | -6.60619 | 13550 ft | 322 kts | 26° |
| 2026-04-25 15:55 | 35.28361 | -6.59380 | 13155 ft | 320 kts | 25° |
| 2026-04-25 15:56 | 35.30334 | -6.58150 | 12765 ft | 317 kts | 25° |
| 2026-04-25 15:56 | 35.32298 | -6.56926 | 12389 ft | 315 kts | 26° |
| 2026-04-25 15:56 | 35.34244 | -6.55711 | 12031 ft | 313 kts | 27° |
| 2026-04-25 15:56 | 35.36178 | -6.54504 | 11659 ft | 311 kts | 27° |
| 2026-04-25 15:57 | 35.38097 | -6.53306 | 11288 ft | 309 kts | 27° |
| 2026-04-25 15:57 | 35.40005 | -6.52114 | 10930 ft | 307 kts | 27° |
| 2026-04-25 15:57 | 35.41900 | -6.50929 | 10589 ft | 304 kts | 28° |
| 2026-04-25 15:57 | 35.43753 | -6.49771 | 10475 ft | 294 kts | 28° |
| 2026-04-25 15:58 | 35.45551 | -6.48632 | 10317 ft | 286 kts | 28° |
| 2026-04-25 15:58 | 35.47286 | -6.47506 | 10186 ft | 278 kts | 28° |
| 2026-04-25 15:58 | 35.48969 | -6.46405 | 10076 ft | 270 kts | 29° |
| 2026-04-25 15:58 | 35.50610 | -6.45331 | 9888 ft | 265 kts | 28° |
| 2026-04-25 15:59 | 35.52235 | -6.44266 | 9597 ft | 264 kts | 29° |
| 2026-04-25 15:59 | 35.53853 | -6.43206 | 9333 ft | 262 kts | 29° |
| 2026-04-25 15:59 | 35.55459 | -6.42154 | 9038 ft | 261 kts | 29° |
| 2026-04-25 15:59 | 35.57052 | -6.41112 | 8760 ft | 259 kts | 29° |
| 2026-04-25 16:00 | 35.58633 | -6.40078 | 8522 ft | 256 kts | 29° |
| 2026-04-25 16:00 | 35.59144 | -6.39744 | 8442 ft | 255 kts | 30° |
| 2026-04-25 16:00 | 35.61751 | -6.38036 | 8002 ft | 252 kts | 29° |
| 2026-04-25 16:00 | 35.63298 | -6.37024 | 7737 ft | 251 kts | 30° |
| 2026-04-25 16:01 | 35.64813 | -6.36030 | 7481 ft | 250 kts | 29° |
| 2026-04-25 16:01 | 35.66343 | -6.35028 | 7228 ft | 248 kts | 29° |
| 2026-04-25 16:01 | 35.67864 | -6.34031 | 6962 ft | 248 kts | 29° |
| 2026-04-25 16:01 | 35.69383 | -6.33035 | 6690 ft | 247 kts | 29° |
| 2026-04-25 16:02 | 35.70892 | -6.32045 | 6432 ft | 246 kts | 29° |
| 2026-04-25 16:02 | 35.72383 | -6.31039 | 6209 ft | 242 kts | 35° |
| 2026-04-25 16:02 | 35.73474 | -6.29546 | 6068 ft | 233 kts | 63° |
| 2026-04-25 16:02 | 35.73959 | -6.27687 | 5978 ft | 226 kts | 82° |
| 2026-04-25 16:03 | 35.73991 | -6.25770 | 5901 ft | 222 kts | 88° |
| 2026-04-25 16:03 | 35.73962 | -6.23868 | 5808 ft | 222 kts | 89° |
| 2026-04-25 16:03 | 35.73932 | -6.21992 | 5675 ft | 219 kts | 89° |
| 2026-04-25 16:03 | 35.73905 | -6.20127 | 5488 ft | 215 kts | 89° |
| 2026-04-25 16:04 | 35.73879 | -6.18326 | 5259 ft | 205 kts | 88° |
| 2026-04-25 16:04 | 35.73857 | -6.16615 | 5019 ft | 196 kts | 88° |
| 2026-04-25 16:04 | 35.73835 | -6.14976 | 4810 ft | 188 kts | 88° |
| 2026-04-25 16:04 | 35.73845 | -6.13397 | 4584 ft | 181 kts | 85° |
| 2026-04-25 16:05 | 35.73858 | -6.11869 | 4376 ft | 177 kts | 87° |
| 2026-04-25 16:05 | 35.73852 | -6.10375 | 4199 ft | 171 kts | 87° |
| 2026-04-25 16:05 | 35.73813 | -6.07456 | 3991 ft | 172 kts | 90° |
| 2026-04-25 16:06 | 35.73783 | -6.06004 | 3983 ft | 167 kts | 89° |
| 2026-04-25 16:06 | 35.73752 | -6.04591 | 3979 ft | 163 kts | 89° |
| 2026-04-25 16:06 | 35.73718 | -6.03205 | 3977 ft | 160 kts | 90° |
| 2026-04-25 16:06 | 35.73682 | -6.01823 | 3646 ft | 170 kts | 91° |
| 2026-04-25 16:07 | 35.73641 | -6.00392 | 3361 ft | 169 kts | 91° |
| 2026-04-25 16:07 | 35.73627 | -5.99900 | 3231 ft | 171 kts | 91° |
| 2026-04-25 16:07 | 35.72531 | -5.98160 | 3232 ft | 187 kts | 165° |
| 2026-04-25 16:07 | 35.71202 | -5.98565 | 3267 ft | 212 kts | 211° |
| 2026-04-25 16:08 | 35.70399 | -6.00097 | 3269 ft | 219 kts | 259° |
| 2026-04-25 16:08 | 35.70630 | -6.01881 | 3268 ft | 211 kts | 302° |
| 2026-04-25 16:08 | 35.71332 | -6.03456 | 3283 ft | 211 kts | 298° |
| 2026-04-25 16:08 | 35.71914 | -6.05134 | 3292 ft | 214 kts | 295° |
| 2026-04-25 16:09 | 35.72478 | -6.06845 | 3288 ft | 217 kts | 295° |
| 2026-04-25 16:09 | 35.73041 | -6.08569 | 3279 ft | 217 kts | 296° |
| 2026-04-25 16:09 | 35.73869 | -6.10034 | 3276 ft | 202 kts | 329° |
| 2026-04-25 16:09 | 35.74922 | -6.11142 | 3257 ft | 205 kts | 306° |
| 2026-04-25 16:10 | 35.75191 | -6.12910 | 3329 ft | 234 kts | 262° |
| 2026-04-25 16:10 | 35.74875 | -6.15004 | 3289 ft | 254 kts | 264° |
| 2026-04-25 16:10 | 35.74648 | -6.17141 | 3275 ft | 252 kts | 253° |
| 2026-04-25 16:10 | 35.73665 | -6.18864 | 3303 ft | 247 kts | 211° |
| 2026-04-25 16:11 | 35.72078 | -6.19507 | 3287 ft | 239 kts | 174° |
| 2026-04-25 16:11 | 35.70536 | -6.18976 | 3299 ft | 228 kts | 140° |
| 2026-04-25 16:11 | 35.69523 | -6.17572 | 3271 ft | 216 kts | 108° |
| 2026-04-25 16:11 | 35.69272 | -6.15813 | 3181 ft | 203 kts | 84° |
| 2026-04-25 16:12 | 35.69528 | -6.14191 | 3085 ft | 190 kts | 73° |
| 2026-04-25 16:12 | 35.69902 | -6.12699 | 2985 ft | 177 kts | 71° |
| 2026-04-25 16:12 | 35.70261 | -6.11306 | 2878 ft | 163 kts | 72° |
| 2026-04-25 16:12 | 35.70376 | -6.10860 | 2804 ft | 162 kts | 72° |
| 2026-04-25 16:13 | 35.70946 | -6.08661 | 2346 ft | 158 kts | 69° |
| 2026-04-25 16:13 | 35.71577 | -6.07569 | 2084 ft | 157 kts | 56° |
| 2026-04-25 16:13 | 35.72279 | -6.06528 | 1788 ft | 156 kts | 55° |
| 2026-04-25 16:13 | 35.72894 | -6.05462 | 1514 ft | 150 kts | 65° |
| 2026-04-25 16:14 | 35.73121 | -6.04270 | 1220 ft | 141 kts | 93° |
| 2026-04-25 16:14 | 35.73101 | -6.03043 | 1027 ft | 145 kts | 86° |
| 2026-04-25 16:14 | 35.73203 | -6.01810 | 919 ft | 144 kts | 83° |
| 2026-04-25 16:14 | 35.73367 | -6.00620 | 768 ft | 139 kts | 79° |
| 2026-04-25 16:15 | 35.73506 | -5.99441 | 720 ft | 149 kts | 85° |
| 2026-04-25 16:15 | 35.73541 | -5.98170 | 659 ft | 144 kts | 87° |
| 2026-04-25 16:15 | 35.73533 | -5.96991 | 585 ft | 135 kts | 90° |
| 2026-04-25 16:15 | 35.73496 | -5.95847 | 380 ft | 132 kts | 90° |
| 2026-04-25 16:16 | 35.73418 | -5.94710 | 209 ft | 132 kts | 95° |
| 2026-04-25 16:16 | 35.73298 | -5.93634 | 58 ft | 118 kts | 94° |
| 2026-04-25 16:16 | 35.73232 | -5.92882 | 59 ft | 58 kts | 96° |
| 2026-04-25 16:16 | 35.73197 | -5.92452 | 60 ft | 46 kts | 96° |
| 2026-04-25 16:17 | 35.73165 | -5.92106 | 59 ft | 27 kts | 96° |
| 2026-04-25 16:17 | 35.73144 | -5.91887 | 53 ft | 25 kts | 98° |
| 2026-04-25 16:17 | 35.73050 | -5.91740 | 58 ft | 20 kts | 156° |